Time;durP1;ratioP1;P1;durP2;ratioP2;P2;SDS_P1;SDS_P2;PMS_P1;PMS_P2;Temp;Humidity;BMP_temperature;BMP_pressure;BME280_temperature;BME280_humidity;BME280_pressure;Samples;Min_cycle;Max_cycle;Signal;HPM_P1;HPM_P2
2021/01/09 00:02:14;;;;;;;46.00;22.98;;;;;;;0.53;100.00;100688.13;18531040;28;20054;-70
2021/01/09 00:11:15;;;;;;;43.50;22.00;;;;;;;0.50;100.00;100688.19;18530781;28;20047;-70
2021/01/09 00:20:16;;;;;;;79.70;36.97;;;;;;;0.51;100.00;100691.59;18530440;28;20043;-70
2021/01/09 00:29:18;;;;;;;69.05;31.63;;;;;;;0.49;100.00;100699.34;18530941;28;20514;-70
2021/01/09 00:38:19;;;;;;;48.38;23.67;;;;;;;0.53;100.00;100693.28;18528226;28;20051;-70
2021/01/09 00:47:20;;;;;;;40.28;19.30;;;;;;;0.54;100.00;100705.28;18528641;28;20568;-70
2021/01/09 00:56:21;;;;;;;35.45;18.23;;;;;;;0.49;100.00;100696.75;18527662;28;20133;-70
2021/01/09 01:05:21;;;;;;;33.10;17.05;;;;;;;0.51;100.00;100695.00;18525677;28;20423;-70
2021/01/09 01:14:22;;;;;;;36.33;17.88;;;;;;;0.55;100.00;100712.16;18525921;28;20043;-71
2021/01/09 01:23:23;;;;;;;36.63;17.90;;;;;;;0.59;100.00;100711.25;18525711;28;20061;-70
2021/01/09 01:32:24;;;;;;;37.95;17.50;;;;;;;0.59;100.00;100716.41;18514961;28;20054;-70
2021/01/09 01:41:25;;;;;;;33.38;16.25;;;;;;;0.56;100.00;100721.56;18525098;28;20047;-70
2021/01/09 01:50:27;;;;;;;34.75;17.45;;;;;;;0.50;100.00;100724.22;18523885;28;20070;-70
2021/01/09 01:59:27;;;;;;;34.88;16.58;;;;;;;0.49;100.00;100732.81;18523407;28;20058;-70
2021/01/09 02:08:35;;;;;;;31.55;16.10;;;;;;;0.37;100.00;100728.59;18494361;28;20055;-70
2021/01/09 02:17:39;;;;;;;32.13;16.08;;;;;;;0.43;100.00;100732.84;18522334;28;20126;-70
2021/01/09 02:26:41;;;;;;;37.72;15.60;;;;;;;0.41;100.00;100730.28;18524094;28;20047;-70
2021/01/09 02:35:43;;;;;;;34.78;16.63;;;;;;;0.35;100.00;100734.66;18522268;28;20059;-71
2021/01/09 02:44:44;;;;;;;34.42;16.00;;;;;;;0.33;100.00;100744.94;18522447;28;20051;-71
2021/01/09 02:53:45;;;;;;;31.73;15.90;;;;;;;0.22;100.00;100748.44;18523069;28;20656;-70
2021/01/09 03:02:46;;;;;;;30.92;15.25;;;;;;;0.18;100.00;100752.78;18522870;28;20046;-70
2021/01/09 03:11:47;;;;;;;35.67;16.70;;;;;;;0.11;100.00;100752.81;18521723;28;20467;-70
2021/01/09 03:20:48;;;;;;;31.35;15.90;;;;;;;0.14;100.00;100757.94;18521348;28;20046;-70
2021/01/09 03:29:49;;;;;;;36.40;16.70;;;;;;;0.10;100.00;100753.69;18521559;28;20046;-70
2021/01/09 03:38:49;;;;;;;34.22;16.85;;;;;;;0.05;100.00;100760.59;18517898;28;20097;-70
2021/01/09 03:47:52;;;;;;;34.92;16.80;;;;;;;-0.05;100.00;100767.47;18523758;28;20073;-70
2021/01/09 03:56:52;;;;;;;33.13;15.80;;;;;;;-0.29;100.00;100765.03;18531269;28;20059;-69
2021/01/09 04:05:53;;;;;;;33.60;15.90;;;;;;;-0.58;100.00;100773.72;18529923;28;20050;-70
2021/01/09 04:14:54;;;;;;;36.20;16.20;;;;;;;-0.83;100.00;100771.19;18530021;28;20047;-70
2021/01/09 04:23:55;;;;;;;36.42;16.13;;;;;;;-0.97;100.00;100772.09;18530510;28;20150;-70
2021/01/09 04:32:56;;;;;;;37.97;16.33;;;;;;;-1.01;100.00;100772.06;18511321;28;20526;-70
2021/01/09 04:41:57;;;;;;;37.72;17.30;;;;;;;-1.10;100.00;100783.22;18527942;28;20086;-70
2021/01/09 04:50:59;;;;;;;40.15;18.45;;;;;;;-1.11;100.00;100788.34;18527795;28;20047;-69
2021/01/09 05:00:02;;;;;;;46.22;17.75;;;;;;;-1.12;100.00;100791.81;18525771;28;20047;-69
2021/01/09 05:09:03;;;;;;;35.72;16.63;;;;;;;-1.24;100.00;100792.66;18524783;28;20053;-69
2021/01/09 05:18:06;;;;;;;41.03;19.00;;;;;;;-1.39;100.00;100793.50;18524391;28;20476;-69
2021/01/09 05:27:07;;;;;;;36.63;18.13;;;;;;;-1.52;100.00;100796.91;18524716;28;20500;-68
2021/01/09 05:36:09;;;;;;;44.97;20.65;;;;;;;-1.62;100.00;100804.59;18523258;28;20047;-69
2021/01/09 05:45:12;;;;;;;38.35;17.15;;;;;;;-1.72;100.00;100802.00;18522873;28;20055;-70
2021/01/09 05:54:14;;;;;;;39.97;17.33;;;;;;;-1.88;100.00;100794.31;18523230;28;20046;-70
2021/01/09 06:03:30;;;;;;;37.40;15.75;;;;;;;-1.95;100.00;100810.50;18520913;28;20734;-70
2021/01/09 06:12:36;;;;;;;38.25;16.27;;;;;;;-1.96;100.00;100821.63;18521465;28;20093;-70
2021/01/09 06:21:37;;;;;;;36.67;17.00;;;;;;;-2.00;100.00;100828.47;18521060;28;20047;-69
2021/01/09 06:30:43;;;;;;;37.97;17.25;;;;;;;-2.10;100.00;100834.41;18519191;28;20071;-70
2021/01/09 06:39:44;;;;;;;40.70;16.50;;;;;;;-2.15;100.00;100833.53;18519893;28;20051;-69
2021/01/09 06:48:45;;;;;;;39.78;16.10;;;;;;;-2.15;100.00;100843.78;18519757;28;20138;-69
2021/01/09 06:57:46;;;;;;;37.42;16.20;;;;;;;-2.24;100.00;100846.31;18519060;28;20054;-69
2021/01/09 07:06:57;;;;;;;38.95;16.05;;;;;;;-2.22;100.00;100847.16;18514593;28;20051;-69
2021/01/09 07:16:13;;;;;;;41.20;16.33;;;;;;;-2.20;100.00;100853.16;18520753;28;20109;-69
2021/01/09 07:25:22;;;;;;;41.65;16.23;;;;;;;-2.09;100.00;100861.75;18531163;28;20055;-69
2021/01/09 07:34:26;;;;;;;41.75;16.98;;;;;;;-2.08;100.00;100867.75;18538348;28;20055;-69
2021/01/09 07:43:36;;;;;;;37.63;16.23;;;;;;;-2.04;100.00;100869.47;18532345;28;20074;-69
2021/01/09 07:52:37;;;;;;;36.42;15.90;;;;;;;-2.00;100.00;100872.06;18533026;28;20474;-70
2021/01/09 08:01:42;;;;;;;38.28;16.70;;;;;;;-1.92;100.00;100890.03;18529268;28;20121;-69
2021/01/09 08:10:43;;;;;;;39.03;17.30;;;;;;;-1.83;100.00;100896.03;18540874;28;20043;-69
2021/01/09 08:19:44;;;;;;;37.15;16.63;;;;;;;-1.65;100.00;100904.66;18504466;28;20043;-69
2021/01/09 08:28:45;;;;;;;38.45;16.38;;;;;;;-1.37;100.00;100917.56;18520684;28;20110;-69
2021/01/09 08:37:48;;;;;;;37.28;16.63;;;;;;;-1.25;100.00;100924.47;18513793;28;20431;-70
2021/01/09 08:46:50;;;;;;;50.58;24.77;;;;;;;-0.96;100.00;100927.06;18508623;28;20062;-70
2021/01/09 08:56:00;;;;;;;43.58;18.17;;;;;;;-0.78;100.00;100947.66;18504299;28;20054;-69
2021/01/09 09:05:11;;;;;;;41.28;17.55;;;;;;;-0.56;100.00;100941.63;18505451;28;20452;-69
2021/01/09 09:14:12;;;;;;;41.90;18.02;;;;;;;-0.41;100.00;100943.38;18515116;28;20082;-69
2021/01/09 09:23:22;;;;;;;47.20;20.85;;;;;;;-0.19;100.00;100952.75;18511119;28;20101;-69
2021/01/09 09:32:26;;;;;;;46.50;19.40;;;;;;;0.02;100.00;100951.84;18524591;28;20058;-69
2021/01/09 09:41:28;;;;;;;46.72;19.83;;;;;;;0.18;100.00;100974.13;18520763;28;20047;-70
2021/01/09 09:50:33;;;;;;;45.30;19.58;;;;;;;0.24;100.00;100986.09;18517450;28;20419;-71
2021/01/09 09:59:34;;;;;;;41.70;18.23;;;;;;;0.34;100.00;100982.66;18503444;28;20499;-70
2021/01/09 10:08:35;;;;;;;37.60;17.42;;;;;;;0.71;100.00;100985.94;18490106;28;20055;-71
2021/01/09 10:17:36;;;;;;;36.60;17.30;;;;;;;0.93;98.16;100979.78;18519638;28;20502;-70
2021/01/09 10:26:38;;;;;;;35.58;16.23;;;;;;;0.89;98.48;100990.13;18522747;28;20086;-70
2021/01/09 10:35:39;;;;;;;38.95;18.08;;;;;;;0.97;97.94;100994.34;18561983;28;20077;-70
2021/01/09 10:44:40;;;;;;;37.42;18.02;;;;;;;1.15;95.34;100983.97;18594187;28;20509;-71
2021/01/09 10:53:42;;;;;;;34.15;16.50;;;;;;;1.39;94.38;100987.22;18591829;28;20057;-71
2021/01/09 11:02:43;;;;;;;33.97;16.85;;;;;;;1.50;96.05;100981.13;18605278;28;20101;-71
2021/01/09 11:11:47;;;;;;;37.05;18.58;;;;;;;1.42;94.94;100962.28;18564056;28;20047;-70
2021/01/09 11:20:50;;;;;;;39.50;19.00;;;;;;;1.31;96.44;100974.41;18534196;28;20075;-71
2021/01/09 11:29:51;;;;;;;46.00;20.53;;;;;;;1.36;96.14;100975.22;18534875;28;20054;-71
2021/01/09 11:38:52;;;;;;;40.28;19.65;;;;;;;1.26;96.36;100976.16;18530942;28;20046;-71
2021/01/09 11:47:53;;;;;;;38.50;18.42;;;;;;;1.26;97.13;100963.25;18531548;28;20054;-71
2021/01/09 11:56:55;;;;;;;38.38;18.48;;;;;;;1.45;96.56;100959.66;18531267;28;20055;-69
2021/01/09 12:05:56;;;;;;;36.08;18.13;;;;;;;1.88;93.80;100956.72;18529527;28;20051;-70
2021/01/09 12:14:57;;;;;;;35.22;17.23;;;;;;;1.76;93.65;100956.81;18530433;28;20690;-70
2021/01/09 12:23:59;;;;;;;39.15;18.65;;;;;;;1.65;93.13;100952.59;18529046;28;20086;-70
2021/01/09 12:33:00;;;;;;;33.22;16.63;;;;;;;1.68;92.00;100939.66;18529241;28;20055;-69
2021/01/09 12:42:01;;;;;;;30.58;15.30;;;;;;;1.53;91.63;100947.53;18511334;28;20057;-71
2021/01/09 12:51:02;;;;;;;27.73;13.77;;;;;;;1.64;91.47;100953.47;18527391;28;20137;-71
2021/01/09 13:00:04;;;;;;;25.92;13.30;;;;;;;1.57;89.51;100957.00;18527514;28;20047;-71
2021/01/09 13:09:06;;;;;;;27.67;12.50;;;;;;;1.76;87.80;100952.50;18525328;28;20058;-71
2021/01/09 13:18:07;;;;;;;25.52;13.35;;;;;;;1.91;87.27;100964.41;18520679;28;20086;-71
2021/01/09 13:27:09;;;;;;;27.20;13.45;;;;;;;2.12;87.22;100961.59;18523845;28;20046;-71
2021/01/09 13:36:11;;;;;;;30.00;13.63;;;;;;;2.35;85.46;100962.19;18523666;28;20071;-73
2021/01/09 13:45:13;;;;;;;25.88;12.70;;;;;;;2.29;85.19;100959.69;18525590;28;20101;-72
2021/01/09 13:54:14;;;;;;;23.63;12.02;;;;;;;2.56;84.62;100963.66;18525484;28;20046;-72
2021/01/09 14:03:15;;;;;;;28.42;14.20;;;;;;;2.45;85.59;100976.72;18524102;28;20534;-74
2021/01/09 14:12:17;;;;;;;35.70;15.20;;;;;;;2.17;85.11;100977.91;18506628;28;20046;-72
2021/01/09 14:21:18;;;;;;;28.30;14.77;;;;;;;2.20;86.07;100980.44;18521833;28;20046;-72
2021/01/09 14:30:22;;;;;;;27.50;14.70;;;;;;;2.13;84.27;100986.56;18520860;28;20101;-71
2021/01/09 14:39:23;;;;;;;31.50;15.52;;;;;;;2.04;86.11;100987.50;18522298;28;20309;-71
2021/01/09 14:48:24;;;;;;;31.30;16.63;;;;;;;1.90;86.22;100994.53;18521284;28;20086;-70
2021/01/09 14:57:24;;;;;;;30.67;15.65;;;;;;;1.79;86.71;100992.91;18520903;28;20050;-72
2021/01/09 15:06:48;;;;;;;29.77;14.63;;;;;;;1.62;86.00;100986.19;18519236;28;20153;-70
2021/01/09 15:15:49;;;;;;;35.90;16.92;;;;;;;1.52;87.03;100983.69;18519436;28;20081;-70
2021/01/09 15:24:50;;;;;;;30.17;15.27;;;;;;;1.33;87.83;100990.69;18519159;28;20047;-70
2021/01/09 15:33:51;;;;;;;31.10;14.63;;;;;;;1.31;87.43;100989.88;18518395;28;20137;-70
2021/01/09 15:42:57;;;;;;;34.78;17.10;;;;;;;1.16;87.87;100995.13;18514336;28;20051;-69
2021/01/09 15:52:23;;;;;;;25.38;12.15;;;;;;;1.08;85.37;100996.88;18502887;28;20067;-70
2021/01/09 16:01:29;;;;;;;32.20;18.92;;;;;;;0.82;87.37;101002.16;18527002;28;20051;-71
2021/01/09 16:10:30;;;;;;;29.13;14.93;;;;;;;0.56;86.70;101014.34;18527457;28;20054;-71
2021/01/09 16:19:31;;;;;;;32.10;15.48;;;;;;;0.48;85.22;101004.03;18527690;28;20411;-70
2021/01/09 16:28:32;;;;;;;65.55;24.45;;;;;;;0.25;85.94;101008.41;18509759;28;20055;-69
2021/01/09 16:37:34;;;;;;;36.03;16.17;;;;;;;0.21;84.84;101015.28;18525426;28;20467;-70
2021/01/09 16:46:38;;;;;;;43.70;21.48;;;;;;;0.09;84.48;101015.31;18525853;28;20105;-70
2021/01/09 16:55:39;;;;;;;;;;;;;;;0.10;85.03;101016.19;18525192;28;20137;-71
2021/01/09 17:04:40;;;;;;;121.35;42.83;;;;;;;0.03;84.86;101017.03;18520398;28;19963;-71
2021/01/09 17:13:41;;;;;;;58.15;25.15;;;;;;;0.06;83.74;101019.59;18523540;28;20085;-71
2021/01/09 17:22:42;;;;;;;42.60;18.65;;;;;;;0.11;83.58;101021.28;18524364;28;20082;-69
2021/01/09 17:31:47;;;;;;;29.00;12.50;;;;;;;0.21;82.26;101027.28;18502831;28;20058;-69
2021/01/09 17:41:11;;;;;;;24.17;11.73;;;;;;;0.34;81.99;101036.72;18517975;28;20070;-69
2021/01/09 17:50:12;;;;;;;53.05;20.67;;;;;;;0.28;82.64;101040.16;18524134;28;20491;-70
2021/01/09 17:59:13;;;;;;;46.30;20.08;;;;;;;0.29;82.98;101054.75;18523425;28;20058;-70
2021/01/09 18:08:14;;;;;;;24.17;12.95;;;;;;;0.21;83.85;101048.72;18521913;28;20062;-70
2021/01/09 18:17:17;;;;;;;28.08;15.40;;;;;;;0.17;84.98;101062.47;18527604;28;20059;-70
2021/01/09 18:26:19;;;;;;;;;;;;;;;0.21;85.04;101053.88;18522830;28;20090;-70
2021/01/09 18:35:27;;;;;;;43.47;19.88;;;;;;;0.16;84.87;101065.03;18520554;28;19922;-70
2021/01/09 18:44:28;;;;;;;28.87;15.43;;;;;;;0.12;84.97;101076.22;18520507;28;20051;-70
2021/01/09 18:53:29;;;;;;;22.67;11.77;;;;;;;0.23;83.87;101080.50;18529625;28;20102;-70
2021/01/09 19:02:32;;;;;;;20.20;10.63;;;;;;;0.21;83.71;101100.22;18531483;28;20137;-70
2021/01/09 19:11:34;;;;;;;19.70;10.03;;;;;;;0.18;84.19;101096.78;18527304;28;20058;-70
2021/01/09 19:20:36;;;;;;;21.50;9.57;;;;;;;0.06;83.89;101096.78;18538652;28;20133;-70
2021/01/09 19:29:37;;;;;;;20.65;10.90;;;;;;;0.11;83.64;101100.22;18533896;28;20046;-72
2021/01/09 19:38:38;;;;;;;21.25;10.63;;;;;;;0.12;82.81;101112.22;18532715;28;20058;-70
2021/01/09 19:47:40;;;;;;;26.85;12.73;;;;;;;0.12;82.75;101110.53;18532580;28;20058;-71
2021/01/09 19:56:41;;;;;;;20.45;10.60;;;;;;;0.30;80.53;101128.53;18532085;28;20047;-71
2021/01/09 20:05:42;;;;;;;22.40;10.38;;;;;;;0.20;80.21;101131.13;18513753;28;20053;-71
2021/01/09 20:14:43;;;;;;;18.30;9.65;;;;;;;0.16;80.48;101144.81;18530981;28;20832;-72
2021/01/09 20:23:49;;;;;;;20.42;11.35;;;;;;;0.04;80.30;101150.00;18541226;28;20587;-71
2021/01/09 20:32:50;;;;;;;22.83;12.95;;;;;;;-0.06;80.97;101150.00;18526840;28;20066;-71
2021/01/09 20:41:55;;;;;;;17.33;8.88;;;;;;;-0.12;80.72;101155.13;18521262;28;20042;-71
2021/01/09 20:50:56;;;;;;;20.27;10.63;;;;;;;-0.16;80.25;101171.41;18529212;28;20070;-71
2021/01/09 20:59:58;;;;;;;27.17;15.10;;;;;;;-0.23;82.04;101168.81;18528254;28;20061;-71
2021/01/09 21:08:59;;;;;;;23.10;10.52;;;;;;;-0.31;82.14;101179.09;18528956;28;20059;-71
2021/01/09 21:18:00;;;;;;;20.65;11.20;;;;;;;-0.25;82.38;101179.09;18525921;28;20039;-71
2021/01/09 21:27:01;;;;;;;22.30;11.82;;;;;;;-0.35;83.48;101176.50;18525249;28;20514;-71
2021/01/09 21:36:02;;;;;;;18.27;10.30;;;;;;;-0.33;82.84;101175.66;18527719;28;20484;-72
2021/01/09 21:45:07;;;;;;;17.58;9.60;;;;;;;-0.35;83.57;101161.91;18523341;28;20051;-71
2021/01/09 21:54:13;;;;;;;23.58;12.10;;;;;;;-0.18;83.07;101155.09;18523208;28;20414;-71
2021/01/09 22:03:14;;;;;;;17.55;10.13;;;;;;;-0.22;84.40;101152.53;18521574;28;20062;-72
2021/01/09 22:12:15;;;;;;;23.15;11.98;;;;;;;-0.14;84.04;101156.81;18522483;28;20720;-71
2021/01/09 22:21:16;;;;;;;27.10;13.40;;;;;;;-0.13;83.19;101155.09;18520306;28;20047;-71
2021/01/09 22:30:17;;;;;;;19.00;10.55;;;;;;;-0.14;84.77;101149.09;18502912;28;20062;-71
2021/01/09 22:39:19;;;;;;;20.50;10.40;;;;;;;-0.22;84.38;101155.97;18522730;28;20083;-71
2021/01/09 22:48:20;;;;;;;19.47;9.83;;;;;;;-0.25;85.42;101153.38;18541219;28;20053;-70
2021/01/09 22:57:21;;;;;;;18.98;9.52;;;;;;;-0.13;83.95;101137.97;18558630;28;20423;-71
2021/01/09 23:06:23;;;;;;;18.95;9.05;;;;;;;-0.03;81.84;101142.25;18522417;28;20050;-69
2021/01/09 23:15:24;;;;;;;16.15;8.43;;;;;;;0.02;81.25;101137.13;18515152;28;20051;-71
2021/01/09 23:24:25;;;;;;;17.30;8.43;;;;;;;0.14;78.82;101128.53;18518790;28;20058;-70
2021/01/09 23:33:32;;;;;;;14.00;6.47;;;;;;;0.39;75.33;101122.53;18500652;28;20523;-71
2021/01/09 23:42:38;;;;;;;11.95;6.55;;;;;;;0.38;75.20;101111.34;18518396;28;20061;-70
2021/01/09 23:51:39;;;;;;;17.60;9.18;;;;;;;0.35;77.39;101120.81;18518260;28;20164;-70
